Time;durP1;ratioP1;P1;durP2;ratioP2;P2;SDS_P1;SDS_P2;PMS_P1;PMS_P2;Temp;Humidity;BMP_temperature;BMP_pressure;BME280_temperature;BME280_humidity;BME280_pressure;Samples;Min_cycle;Max_cycle;Signal;HPM_P1;HPM_P2
2023/04/22 00:00:08;;;;;;;5.63;5.10;;;16.30;45.70;;;18.82;36.44;101024.81;5035340;28;20202;-57
2023/04/22 00:02:36;;;;;;;6.77;5.60;;;16.30;45.80;;;18.79;36.31;101014.59;5034767;28;20666;-58
2023/04/22 00:05:03;;;;;;;6.03;5.43;;;16.30;45.80;;;18.78;36.57;101012.94;5034781;28;20206;-61
2023/04/22 00:07:30;;;;;;;7.63;5.83;;;16.30;45.90;;;18.76;36.43;101004.34;5034389;28;20533;-59
2023/04/22 00:09:59;;;;;;;12.20;6.87;;;16.30;45.80;;;18.73;36.65;101004.78;5034888;28;20636;-61
2023/04/22 00:12:26;;;;;;;6.23;5.60;;;16.30;46.10;;;18.72;36.57;100997.84;5034267;28;20293;-59
2023/04/22 00:14:53;;;;;;;7.13;5.50;;;16.20;46.00;;;18.70;36.36;100997.25;5034233;28;20223;-57
2023/04/22 00:17:20;;;;;;;6.03;5.50;;;16.20;46.00;;;18.69;36.58;100994.78;5033938;28;20668;-59
2023/04/22 00:19:47;;;;;;;7.00;5.47;;;16.20;46.20;;;18.68;36.63;100990.50;5032412;28;20277;-55
2023/04/22 00:22:14;;;;;;;6.57;5.97;;;16.20;46.10;;;18.65;36.52;100989.09;5034385;28;20175;-56
2023/04/22 00:24:41;;;;;;;7.67;5.13;;;16.20;46.20;;;18.66;36.63;100987.25;5033958;28;20218;-58
2023/04/22 00:27:10;;;;;;;5.97;5.40;;;16.10;46.10;;;18.65;36.42;100981.09;5033938;28;20209;-55
2023/04/22 00:29:38;;;;;;;5.80;5.30;;;16.10;46.00;;;18.63;36.78;100969.84;5034494;28;20186;-56
2023/04/22 00:32:05;;;;;;;6.23;5.63;;;16.10;46.20;;;18.61;36.73;100974.56;5033706;28;20210;-60
2023/04/22 00:34:32;;;;;;;6.00;5.40;;;16.10;46.30;;;18.60;36.71;100966.78;5033913;28;20221;-56
2023/04/22 00:37:00;;;;;;;6.03;5.30;;;16.10;46.20;;;18.58;36.76;100960.88;5034020;28;20245;-57
2023/04/22 00:39:27;;;;;;;6.87;5.10;;;16.10;46.40;;;18.56;36.71;100955.78;5034403;28;20555;-60
2023/04/22 00:41:54;;;;;;;6.63;4.97;;;16.00;46.30;;;18.55;36.83;100959.47;5033988;28;20179;-59
2023/04/22 00:44:25;;;;;;;8.80;5.40;;;16.00;46.40;;;18.52;36.76;100949.22;5034016;28;20221;-55
2023/04/22 00:46:52;;;;;;;5.60;5.13;;;16.00;46.50;;;18.49;36.99;100954.19;5033974;28;20569;-60
2023/04/22 00:49:19;;;;;;;7.50;5.50;;;16.00;46.70;;;18.48;36.95;100957.88;5033806;28;20195;-57
2023/04/22 00:51:46;;;;;;;6.60;5.90;;;16.00;46.70;;;18.47;36.91;100953.59;5033902;28;20217;-58
2023/04/22 00:54:13;;;;;;;6.10;5.50;;;16.00;46.60;;;18.46;36.77;100955.44;5033204;28;20229;-56
2023/04/22 00:56:40;;;;;;;6.00;5.40;;;15.90;46.70;;;18.46;36.80;100949.31;5033250;28;20194;-59
2023/04/22 00:59:09;;;;;;;5.50;5.10;;;15.90;46.70;;;18.45;36.79;100947.63;5033833;28;20202;-58
2023/04/22 01:01:38;;;;;;;6.03;5.53;;;15.90;46.70;;;18.45;36.83;100945.78;5033937;28;20586;-56
2023/04/22 01:04:05;;;;;;;8.03;5.20;;;15.90;46.80;;;18.42;36.86;100938.25;5032309;28;20694;-57
2023/04/22 01:06:34;;;;;;;6.13;5.33;;;15.90;46.90;;;18.43;36.89;100933.72;5028444;28;20242;-59
2023/04/22 01:09:01;;;;;;;6.57;5.43;;;15.90;46.80;;;18.42;36.98;100938.25;5022457;28;20197;-59
2023/04/22 01:11:28;;;;;;;6.00;5.40;;;15.90;46.80;;;18.42;36.86;100938.25;5033496;28;20190;-60
2023/04/22 01:13:55;;;;;;;7.00;6.17;;;15.90;46.90;;;18.41;36.81;100946.44;5032496;28;20612;-58
2023/04/22 01:16:24;;;;;;;7.20;5.77;;;15.90;46.90;;;18.39;36.87;100944.00;5033769;28;20281;-59
2023/04/22 01:18:53;;;;;;;6.90;6.20;;;15.90;47.00;;;18.40;36.92;100939.50;5033247;28;20217;-58
2023/04/22 01:21:20;;;;;;;6.90;6.20;;;15.80;46.90;;;18.40;37.04;100944.84;5032146;28;20217;-59
2023/04/22 01:23:48;;;;;;;6.63;5.93;;;15.80;46.90;;;18.40;36.97;100940.28;5032822;28;20643;-59
2023/04/22 01:26:15;;;;;;;7.23;5.90;;;15.80;46.90;;;18.41;36.67;100933.94;5033443;28;20194;-57
2023/04/22 01:28:42;;;;;;;6.80;5.70;;;15.80;46.90;;;18.43;36.68;100945.19;5033291;28;20191;-57
2023/04/22 01:31:09;;;;;;;7.30;6.03;;;15.80;46.80;;;18.39;36.92;100930.69;5033448;28;20534;-57
2023/04/22 01:33:37;;;;;;;7.27;6.57;;;15.80;47.10;;;18.38;36.92;100934.38;5032650;28;20214;-59
2023/04/22 01:36:05;;;;;;;6.77;6.07;;;15.80;47.00;;;18.37;37.09;100943.41;5033341;28;20238;-57
2023/04/22 01:38:33;;;;;;;6.57;5.90;;;15.80;47.00;;;18.34;36.97;100924.38;5028541;28;20198;-60
2023/04/22 01:41:01;;;;;;;6.70;5.67;;;15.80;47.20;;;18.33;37.12;100928.88;5013771;28;20706;-60
2023/04/22 01:43:29;;;;;;;6.50;5.90;;;15.80;47.10;;;18.32;36.95;100931.78;5024618;28;20297;-58
2023/04/22 01:45:57;;;;;;;6.43;5.63;;;15.80;47.10;;;18.34;37.11;100929.69;5032139;28;20218;-55
2023/04/22 01:48:24;;;;;;;7.07;6.10;;;15.80;47.10;;;18.33;37.15;100934.22;5035521;28;20206;-58
2023/04/22 01:50:51;;;;;;;6.73;6.13;;;15.80;47.20;;;18.35;37.10;100926.81;5032758;28;20206;-57
2023/04/22 01:53:19;;;;;;;7.03;6.37;;;15.80;47.20;;;18.36;36.96;100927.63;5033141;28;20214;-57
2023/04/22 01:55:46;;;;;;;8.13;6.27;;;15.80;47.40;;;18.38;36.89;100931.72;5032870;28;20579;-57
2023/04/22 01:58:15;;;;;;;7.47;6.70;;;15.80;47.30;;;18.39;37.21;100935.19;5033329;28;20203;-58
2023/04/22 02:00:42;;;;;;;7.10;6.40;;;15.80;47.50;;;18.41;37.07;100925.13;5033430;28;20199;-58
2023/04/22 02:03:09;;;;;;;6.63;6.03;;;15.80;47.30;;;18.44;36.91;100930.84;5033013;28;20669;-58
2023/04/22 02:05:37;;;;;;;7.00;6.17;;;15.80;47.40;;;18.46;37.05;100923.47;5032818;28;20207;-62
2023/04/22 02:08:04;;;;;;;7.10;6.50;;;15.90;47.50;;;18.48;37.01;100921.38;5037007;28;20218;-57
2023/04/22 02:10:31;;;;;;;7.43;6.70;;;15.80;47.50;;;18.47;37.20;100927.75;5037282;28;20554;-56
2023/04/22 02:12:58;;;;;;;8.87;6.40;;;15.80;47.50;;;18.47;36.92;100925.06;5052051;28;20282;-57
2023/04/22 02:15:26;;;;;;;6.93;6.20;;;15.80;47.40;;;18.48;37.03;100925.91;5035637;28;20211;-54
2023/04/22 02:17:53;;;;;;;6.33;5.73;;;15.90;47.60;;;18.48;37.13;100932.06;5035418;28;20352;-59
2023/04/22 02:20:20;;;;;;;7.33;6.63;;;15.90;47.60;;;18.46;37.22;100928.78;5036537;28;20252;-57
2023/04/22 02:22:47;;;;;;;7.00;6.40;;;15.80;47.70;;;18.40;37.37;100929.63;5036767;28;20187;-57
2023/04/22 02:29:20;;;;;;;8.70;7.60;;;15.80;48.10;;;18.14;37.94;100932.56;5023409;28;20240;-57
2023/04/22 02:31:49;;;;;;;8.27;7.47;;;15.80;48.20;;;18.10;38.12;100929.53;5035584;28;20187;-55
2023/04/22 02:34:16;;;;;;;7.73;7.03;;;15.70;48.40;;;18.01;38.44;100925.50;5035839;28;20220;-55
2023/04/22 02:36:43;;;;;;;7.90;7.10;;;15.70;48.70;;;17.94;38.38;100929.25;5036070;28;20203;-58
2023/04/22 02:39:10;;;;;;;7.77;6.97;;;15.70;48.90;;;17.91;38.53;100924.38;5036327;28;20199;-58
2023/04/22 02:41:37;;;;;;;8.60;7.03;;;15.60;48.90;;;17.85;38.76;100914.59;5036377;28;20635;-59
2023/04/22 02:44:04;;;;;;;9.10;7.67;;;15.60;49.10;;;17.84;38.76;100918.28;5035529;28;20215;-56
2023/04/22 02:46:31;;;;;;;7.00;6.40;;;15.50;49.20;;;17.83;38.87;100917.44;5036219;28;20190;-59
2023/04/22 02:48:59;;;;;;;9.17;7.20;;;15.50;49.40;;;17.78;39.15;100917.28;5048035;28;20219;-59
2023/04/22 02:51:27;;;;;;;9.10;7.63;;;15.40;49.60;;;17.69;39.52;100909.78;5016415;28;20663;-57
2023/04/22 02:53:54;;;;;;;7.43;6.77;;;15.40;49.90;;;17.64;39.77;100906.97;5015740;28;20317;-59
2023/04/22 02:56:20;;;;;;;8.17;7.47;;;15.40;49.90;;;17.57;39.52;100915.81;5016430;28;20199;-59
2023/04/22 02:58:47;;;;;;;9.07;7.77;;;15.30;50.00;;;17.62;39.63;100904.50;5033156;28;20536;-56
2023/04/22 03:01:14;;;;;;;8.10;7.40;;;15.30;50.10;;;17.60;39.54;100898.59;5035737;28;20349;-58
2023/04/22 03:03:41;;;;;;;9.20;8.17;;;15.30;50.40;;;17.53;39.72;100896.00;5035118;28;20554;-56
2023/04/22 03:06:10;;;;;;;8.00;7.30;;;15.30;50.50;;;17.53;39.83;100900.50;5035437;28;20681;-60
2023/04/22 03:08:37;;;;;;;8.27;7.47;;;15.20;50.50;;;17.48;39.92;100893.13;5035493;28;20546;-56
2023/04/22 03:11:04;;;;;;;9.70;7.60;;;15.20;50.80;;;17.37;40.31;100893.81;5034345;28;20203;-60
2023/04/22 03:13:31;;;;;;;8.40;7.43;;;15.20;50.80;;;17.39;40.08;100886.44;5034790;28;20214;-58
2023/04/22 03:15:58;;;;;;;8.97;7.80;;;15.10;50.90;;;17.42;40.13;100888.66;5035512;28;20216;-58
2023/04/22 03:18:25;;;;;;;8.87;7.73;;;15.10;51.00;;;17.35;40.15;100887.88;5049945;28;20225;-58
2023/04/22 03:20:52;;;;;;;8.17;7.33;;;15.10;51.20;;;17.38;40.24;100887.44;5035355;28;20221;-59
2023/04/22 03:23:20;;;;;;;8.70;7.90;;;15.00;51.00;;;17.39;40.12;100883.78;5035036;28;20211;-59
2023/04/22 03:25:47;;;;;;;8.70;7.80;;;15.10;51.30;;;17.41;39.88;100884.38;5035453;28;20207;-58
2023/04/22 03:28:14;;;;;;;10.07;7.93;;;15.00;51.20;;;17.41;40.24;100887.03;5035184;28;20512;-58
2023/04/22 03:30:41;;;;;;;12.80;7.73;;;15.00;51.40;;;17.37;40.02;100879.69;5034856;28;20194;-59
2023/04/22 03:33:08;;;;;;;9.83;8.93;;;15.00;51.50;;;17.34;40.04;100880.94;5035433;28;20218;-59
2023/04/22 03:35:35;;;;;;;9.23;8.00;;;15.00;51.60;;;17.34;40.08;100877.47;5034790;28;20211;-59
2023/04/22 03:38:02;;;;;;;10.17;8.53;;;15.00;51.60;;;17.34;40.32;100875.63;5034973;28;20706;-59
2023/04/22 03:40:30;;;;;;;9.03;7.83;;;14.90;51.80;;;17.34;40.13;100880.13;5034840;28;20268;-56
2023/04/22 03:42:57;;;;;;;8.27;7.47;;;14.90;51.80;;;17.35;40.18;100879.91;5035068;28;20183;-59
2023/04/22 03:45:24;;;;;;;9.63;8.17;;;14.90;51.70;;;17.34;40.18;100878.28;5034494;28;20286;-63
2023/04/22 03:47:51;;;;;;;8.70;7.80;;;14.90;52.00;;;17.33;40.08;100873.97;5034614;28;20539;-58
2023/04/22 03:50:18;;;;;;;8.57;7.77;;;14.90;52.00;;;17.36;40.35;100876.22;5050209;28;20618;-59
2023/04/22 03:52:45;;;;;;;8.90;8.17;;;14.90;52.00;;;17.31;40.58;100881.38;5034928;28;20749;-59
2023/04/22 03:55:12;;;;;;;8.90;8.00;;;14.90;52.20;;;17.31;40.63;100883.19;5034133;28;20214;-57
2023/04/22 03:57:40;;;;;;;10.90;8.33;;;14.90;52.40;;;17.28;40.64;100881.78;5034125;28;20706;-55
2023/04/22 04:00:08;;;;;;;8.23;7.53;;;14.90;52.40;;;17.27;40.64;100880.16;5034525;28;20198;-57
2023/04/22 04:02:35;;;;;;;9.23;7.37;;;14.90;52.50;;;17.26;40.59;100878.53;5034787;28;20202;-56
2023/04/22 04:05:03;;;;;;;9.13;8.23;;;14.90;52.50;;;17.27;40.54;100872.19;5033844;28;20294;-54
2023/04/22 04:07:30;;;;;;;8.87;7.97;;;14.90;52.50;;;17.25;40.56;100871.59;5033253;28;20646;-59
2023/04/22 04:09:57;;;;;;;11.87;7.60;;;14.90;52.60;;;17.26;40.75;100867.88;5033381;28;20198;-57
2023/04/22 04:12:24;;;;;;;10.37;8.43;;;14.90;52.60;;;17.30;40.70;100858.47;5034404;28;20678;-59
2023/04/22 04:14:52;;;;;;;10.57;8.53;;;14.90;52.70;;;17.33;40.50;100868.66;5032536;28;20288;-56
2023/04/22 04:17:20;;;;;;;8.83;7.93;;;14.90;52.70;;;17.36;40.48;100862.91;5034370;28;20197;-56
2023/04/22 04:19:47;;;;;;;9.80;8.47;;;14.90;52.60;;;17.36;40.42;100868.22;5034217;28;20182;-59
2023/04/22 04:22:14;;;;;;;9.73;8.73;;;14.90;52.60;;;17.30;40.51;100871.75;5034077;28;20197;-55
2023/04/22 04:24:41;;;;;;;7.97;7.23;;;14.90;52.70;;;17.26;40.38;100873.22;5033618;28;20210;-57
2023/04/22 04:27:08;;;;;;;9.80;8.80;;;14.90;52.70;;;17.22;40.71;100861.38;5033452;28;20203;-56
2023/04/22 04:29:35;;;;;;;9.77;8.87;;;14.90;52.80;;;17.24;40.85;100861.97;5034174;28;20197;-59
2023/04/22 04:32:04;;;;;;;11.53;8.80;;;14.90;52.90;;;17.19;41.00;100853.00;5034374;28;20237;-58
2023/04/22 04:34:33;;;;;;;8.33;7.53;;;14.90;53.00;;;17.22;40.89;100856.06;5033970;28;20237;-56
2023/04/22 04:37:00;;;;;;;9.30;8.37;;;14.80;52.90;;;17.20;40.77;100852.78;5034044;28;20222;-55
2023/04/22 04:39:27;;;;;;;9.13;8.23;;;14.80;53.10;;;17.17;41.16;100852.41;5034323;28;20224;-59
2023/04/22 04:41:54;;;;;;;10.03;8.47;;;14.80;53.30;;;17.04;41.38;100858.63;5033868;28;20563;-58
2023/04/22 04:44:21;;;;;;;9.63;8.73;;;14.70;53.50;;;16.99;41.75;100847.81;5033700;28;20306;-60
2023/04/22 04:46:49;;;;;;;11.17;9.10;;;14.70;53.70;;;16.92;41.85;100852.34;5033377;28;20643;-57
2023/04/22 04:49:17;;;;;;;10.67;9.13;;;14.70;53.80;;;16.95;41.55;100859.09;5034300;28;20671;-59
2023/04/22 04:51:44;;;;;;;9.70;8.80;;;14.70;53.90;;;16.88;42.17;100848.47;5033725;28;20655;-58
2023/04/22 04:54:11;;;;;;;10.13;8.53;;;14.60;54.10;;;16.85;41.89;100848.91;5033638;28;20218;-58
2023/04/22 04:56:38;;;;;;;9.40;8.43;;;14.60;54.30;;;16.83;42.16;100840.31;5033339;28;20194;-58
2023/04/22 04:59:05;;;;;;;9.90;9.00;;;14.60;54.40;;;16.92;42.18;100849.69;5034108;28;20559;-56
2023/04/22 05:01:32;;;;;;;10.40;9.40;;;14.60;54.40;;;16.89;41.92;100839.47;5033613;28;20202;-59
2023/04/22 05:03:59;;;;;;;10.13;9.13;;;14.60;54.60;;;16.99;41.77;100837.19;5033115;28;20190;-58
2023/04/22 05:06:27;;;;;;;9.93;8.30;;;14.70;54.50;;;16.99;42.11;100834.53;5032803;28;20277;-55
2023/04/22 05:08:54;;;;;;;9.23;8.33;;;14.60;54.60;;;16.93;41.85;100830.03;5033442;28;20365;-59
2023/04/22 05:11:21;;;;;;;10.00;8.23;;;14.70;54.80;;;16.91;42.48;100832.09;5032881;28;20199;-57
2023/04/22 05:13:48;;;;;;;9.87;8.90;;;14.70;54.80;;;16.92;42.19;100833.75;5032442;28;20222;-55
2023/04/22 05:16:15;;;;;;;10.00;8.97;;;14.60;54.90;;;17.01;42.21;100832.47;5033064;28;20197;-58
2023/04/22 05:18:42;;;;;;;9.97;8.97;;;14.70;54.90;;;17.08;41.81;100825.25;5033143;28;20645;-60
2023/04/22 05:21:09;;;;;;;9.63;8.70;;;14.70;54.80;;;17.13;42.19;100830.75;5033468;28;20206;-59
2023/04/22 05:23:38;;;;;;;9.43;8.53;;;14.70;54.90;;;17.17;41.98;100837.25;5032947;28;20598;-55
2023/04/22 05:26:05;;;;;;;9.83;8.83;;;14.80;55.60;;;17.25;41.76;100834.34;5033175;28;20218;-63
2023/04/22 05:28:32;;;;;;;9.60;8.60;;;14.80;54.80;;;17.27;41.84;100832.28;5034954;28;20205;-58
2023/04/22 05:30:59;;;;;;;10.53;9.27;;;14.90;54.90;;;17.33;41.69;100842.03;5033468;28;20221;-58
2023/04/22 05:33:26;;;;;;;10.03;9.00;;;14.90;54.90;;;17.39;41.67;100835.06;5033190;28;20301;-58
2023/04/22 05:35:52;;;;;;;8.83;7.90;;;14.90;54.80;;;17.47;41.11;100832.94;5033424;28;20217;-56
2023/04/22 05:38:19;;;;;;;9.33;8.53;;;15.00;54.80;;;17.42;41.51;100832.75;5033150;28;20230;-59
2023/04/22 05:40:48;;;;;;;9.37;8.37;;;15.00;54.90;;;17.45;41.48;100835.00;5033033;28;20229;-58
2023/04/22 05:43:15;;;;;;;10.27;9.20;;;15.00;54.90;;;17.46;41.67;100831.31;5052175;28;20207;-59
2023/04/22 05:45:42;;;;;;;10.80;9.20;;;15.10;55.00;;;17.42;42.07;100830.09;5036990;28;20218;-57
2023/04/22 05:48:09;;;;;;;11.30;9.53;;;15.10;55.00;;;17.44;41.64;100830.72;5036058;28;20606;-59
2023/04/22 05:50:36;;;;;;;12.37;8.87;;;15.10;55.00;;;17.45;42.00;100840.31;5035685;28;20281;-57
2023/04/22 05:53:03;;;;;;;10.17;8.83;;;15.10;55.10;;;17.52;41.89;100834.97;5036277;28;20308;-58
2023/04/22 05:55:30;;;;;;;9.90;8.87;;;15.20;55.20;;;17.66;41.56;100839.19;5036615;28;20218;-60
2023/04/22 05:57:58;;;;;;;9.60;8.60;;;15.30;55.20;;;17.68;41.54;100838.94;5036839;28;20651;-59
2023/04/22 06:00:25;;;;;;;11.67;9.27;;;15.30;55.20;;;17.76;41.63;100852.00;5037388;28;20206;-63
2023/04/22 06:02:52;;;;;;;9.90;9.03;;;15.40;55.30;;;17.88;41.51;100839.56;5036915;28;20195;-61
2023/04/22 06:05:19;;;;;;;8.80;8.10;;;15.40;55.20;;;18.03;41.22;100842.69;5051994;28;20207;-60
2023/04/22 06:07:46;;;;;;;9.17;8.37;;;15.50;55.20;;;18.11;41.09;100845.09;5036264;28;20250;-58
2023/04/22 06:10:13;;;;;;;9.97;8.70;;;15.60;55.20;;;18.20;41.15;100830.44;5036818;28;20198;-58
2023/04/22 06:12:40;;;;;;;9.30;8.40;;;15.60;55.10;;;18.31;40.89;100829.69;5036245;28;20201;-59
2023/04/22 06:15:10;;;;;;;9.03;8.03;;;15.70;55.00;;;18.41;40.78;100832.66;5036068;28;20226;-59
2023/04/22 06:17:38;;;;;;;8.43;7.73;;;15.80;54.70;;;18.48;40.64;100836.09;5036195;28;20562;-56
2023/04/22 06:20:06;;;;;;;10.43;9.40;;;15.90;54.80;;;18.59;40.36;100834.53;5036855;28;20285;-58
2023/04/22 06:22:33;;;;;;;10.97;8.53;;;16.00;54.70;;;18.64;40.34;100839.97;5036254;28;20186;-58
2023/04/22 06:25:00;;;;;;;11.50;9.07;;;16.00;54.60;;;18.63;40.36;100846.34;5036698;28;20665;-55
2023/04/22 06:27:27;;;;;;;9.80;8.80;;;16.10;54.50;;;18.62;40.53;100837.53;5036457;28;20221;-55
2023/04/22 06:29:54;;;;;;;9.47;8.47;;;16.10;54.40;;;18.74;40.33;100834.94;5036677;28;20547;-59
2023/04/22 06:32:22;;;;;;;8.30;7.50;;;16.20;54.40;;;18.80;40.16;100829.50;5036402;28;20198;-59
2023/04/22 06:34:49;;;;;;;9.37;8.40;;;16.20;54.30;;;18.81;39.85;100828.47;5036476;28;20225;-58
2023/04/22 06:37:16;;;;;;;8.40;7.40;;;16.30;54.30;;;18.88;40.21;100836.38;5036049;28;20555;-60
2023/04/22 06:39:43;;;;;;;9.67;8.77;;;16.30;54.30;;;18.91;40.17;100836.75;5035044;28;20198;-57
2023/04/22 06:42:10;;;;;;;9.53;8.53;;;16.30;54.50;;;18.94;39.93;100830.16;5036207;28;20594;-55
2023/04/22 06:44:37;;;;;;;9.90;8.93;;;16.40;54.30;;;18.97;40.10;100829.69;5035855;28;20691;-56
2023/04/22 06:47:04;;;;;;;9.77;8.90;;;16.40;54.40;;;18.93;40.27;100832.00;5034249;28;20289;-56
2023/04/22 06:49:34;;;;;;;9.47;8.00;;;16.40;54.80;;;18.89;40.38;100830.84;5035331;28;20195;-57
2023/04/22 06:52:01;;;;;;;10.63;8.30;;;16.40;54.50;;;18.92;40.35;100830.34;5035554;28;20218;-58
2023/04/22 06:54:28;;;;;;;9.77;8.77;;;16.40;54.60;;;18.96;40.47;100832.56;5034372;28;20230;-59
2023/04/22 06:56:55;;;;;;;9.93;8.93;;;16.40;54.70;;;19.00;40.48;100823.06;5035501;28;20598;-61
2023/04/22 06:59:22;;;;;;;9.40;8.43;;;16.40;54.70;;;19.02;40.34;100819.13;5035800;28;20217;-58
2023/04/22 07:01:49;;;;;;;10.10;9.00;;;16.40;54.70;;;19.00;40.78;100817.72;5035613;28;20187;-58
2023/04/22 07:04:16;;;;;;;9.30;8.47;;;16.40;54.80;;;18.98;40.42;100817.97;5035115;28;20211;-59
2023/04/22 07:06:45;;;;;;;9.60;8.20;;;16.40;54.90;;;18.96;40.57;100814.72;5035818;28;20206;-58
2023/04/22 07:09:12;;;;;;;9.77;8.77;;;16.40;54.90;;;19.00;40.59;100805.22;5016050;28;20191;-58
2023/04/22 07:11:38;;;;;;;9.70;8.80;;;16.40;55.10;;;19.03;40.61;100809.28;5032015;28;20202;-56
2023/04/22 07:14:05;;;;;;;9.83;8.27;;;16.40;55.10;;;18.96;40.73;100804.06;5034594;28;20221;-57
2023/04/22 07:16:32;;;;;;;10.90;8.37;;;16.40;55.20;;;18.94;41.07;100804.25;5034667;28;20190;-55
2023/04/22 07:18:59;;;;;;;12.13;8.57;;;16.40;55.40;;;19.05;41.10;100804.53;5035266;28;20199;-59
2023/04/22 07:21:26;;;;;;;12.07;8.57;;;16.50;55.60;;;19.11;40.89;100799.09;5034626;28;20191;-58
2023/04/22 07:23:54;;;;;;;11.33;8.83;;;16.60;55.80;;;19.27;40.93;100814.47;5034820;28;20190;-60
2023/04/22 07:26:21;;;;;;;8.87;7.73;;;16.60;55.60;;;19.38;40.59;100810.19;5036612;28;20195;-58
2023/04/22 07:28:49;;;;;;;9.50;8.60;;;16.70;55.50;;;19.45;40.64;100821.56;5034559;28;20243;-62
2023/04/22 07:31:16;;;;;;;9.10;8.07;;;16.80;55.40;;;19.53;40.45;100830.09;5035091;28;20217;-56
2023/04/22 07:33:43;;;;;;;10.27;7.60;;;17.00;55.40;;;19.75;40.41;100811.63;5034574;28;20190;-58
2023/04/22 07:36:10;;;;;;;9.43;8.43;;;17.10;55.20;;;20.00;39.69;100814.84;5034402;28;20198;-58
2023/04/22 07:38:37;;;;;;;10.20;9.20;;;17.20;55.10;;;20.41;39.54;100826.44;5035648;28;20229;-59
2023/04/22 07:41:05;;;;;;;8.57;7.73;;;17.40;55.10;;;21.06;38.84;100825.03;5035200;28;20222;-59
2023/04/22 07:43:32;;;;;;;9.20;8.23;;;17.60;55.10;;;22.10;37.06;100826.16;5033794;28;20755;-56
2023/04/22 07:45:59;;;;;;;9.07;7.37;;;18.00;54.60;;;22.97;35.72;100828.81;5034364;28;20501;-60
2023/04/22 07:48:26;;;;;;;9.03;7.90;;;18.60;53.60;;;23.54;34.63;100821.81;5034723;28;20658;-59
2023/04/22 07:50:53;;;;;;;8.97;8.07;;;19.20;52.50;;;23.95;33.93;100823.72;5033316;28;20555;-57
2023/04/22 07:53:20;;;;;;;8.53;7.73;;;19.70;50.90;;;24.40;32.88;100833.09;5045572;28;20187;-59
2023/04/22 07:55:48;;;;;;;10.57;7.83;;;20.20;49.80;;;24.80;32.78;100822.47;5014403;28;20210;-57
2023/04/22 07:58:16;;;;;;;8.03;7.30;;;20.60;49.20;;;25.52;31.26;100830.38;5025590;28;20707;-59
2023/04/22 08:00:43;;;;;;;13.30;7.53;;;21.00;47.70;;;25.77;30.47;100829.56;5034419;28;20217;-57
2023/04/22 08:03:11;;;;;;;9.77;6.73;;;21.50;46.60;;;26.01;30.75;100827.84;5034796;28;20183;-59
2023/04/22 08:05:38;;;;;;;8.37;7.53;;;21.80;46.20;;;26.29;30.02;100827.28;5033376;28;20293;-61
2023/04/22 08:08:06;;;;;;;7.73;7.03;;;22.10;44.80;;;26.46;29.98;100826.94;5033885;28;20650;-58
2023/04/22 08:10:33;;;;;;;9.00;6.90;;;22.40;44.40;;;26.58;29.17;100822.00;5034540;28;20248;-58
2023/04/22 08:13:00;;;;;;;13.43;7.37;;;22.60;43.90;;;26.45;29.23;100819.91;5034465;28;20273;-59
2023/04/22 08:15:29;;;;;;;7.47;6.40;;;22.70;43.30;;;26.73;29.88;100817.31;5033733;28;20582;-58
2023/04/22 08:17:56;;;;;;;7.33;6.50;;;22.90;43.60;;;27.20;29.37;100810.53;5032656;28;20260;-58
2023/04/22 08:20:24;;;;;;;7.93;6.83;;;23.00;43.10;;;27.41;27.93;100812.00;5034479;28;20277;-57
2023/04/22 08:22:56;;;;;;;6.50;6.00;;;23.20;41.70;;;27.14;28.35;100814.38;5033739;28;20656;-59
2023/04/22 08:25:24;;;;;;;7.70;7.00;;;23.30;41.30;;;27.18;28.63;100801.91;5033796;28;20702;-57
2023/04/22 08:27:51;;;;;;;7.03;5.67;;;23.40;41.40;;;27.63;28.14;100801.53;5032368;28;20617;-59
2023/04/22 08:30:18;;;;;;;6.70;5.97;;;23.60;41.90;;;28.57;27.53;100802.63;5032971;28;20562;-59
2023/04/22 08:32:46;;;;;;;6.50;5.90;;;23.90;41.90;;;29.19;26.13;100799.53;5033862;28;20679;-60
2023/04/22 08:35:14;;;;;;;10.37;7.80;;;24.30;40.30;;;29.40;25.94;100803.53;5033077;28;20252;-57
2023/04/22 08:37:41;;;;;;;7.37;6.70;;;24.60;39.70;;;29.72;25.71;100799.16;5033595;28;20220;-58
2023/04/22 08:40:08;;;;;;;8.33;6.13;;;25.00;38.90;;;30.01;24.97;100795.09;5032292;28;20654;-57
2023/04/22 08:42:36;;;;;;;6.07;5.47;;;25.30;37.90;;;30.31;24.72;100790.13;5033677;28;20277;-55
2023/04/22 08:45:05;;;;;;;7.13;5.90;;;25.60;37.10;;;30.95;24.11;100797.16;5033327;28;20221;-60
2023/04/22 08:47:33;;;;;;;6.40;5.80;;;25.90;37.60;;;31.92;22.97;100784.28;5033025;28;20670;-60
2023/04/22 08:50:05;;;;;;;6.70;6.00;;;26.30;36.50;;;32.78;22.69;100779.81;5032521;28;20206;-61
2023/04/22 08:52:32;;;;;;;6.03;5.47;;;26.80;35.50;;;33.52;21.17;100778.75;5033346;28;20596;-60
2023/04/22 08:54:59;;;;;;;6.83;6.23;;;27.40;34.20;;;34.15;19.86;100773.19;5032850;28;20675;-60
2023/04/22 08:57:28;;;;;;;6.13;5.50;;;27.90;32.50;;;34.21;20.25;100765.59;5032829;28;20331;-62
2023/04/22 08:59:55;;;;;;;6.63;6.07;;;28.40;32.60;;;34.14;20.19;100755.16;5034414;28;20190;-62
2023/04/22 09:02:24;;;;;;;7.40;5.57;;;28.60;30.70;;;33.54;20.48;100762.88;5033859;28;20245;-60
2023/04/22 09:04:55;;;;;;;6.13;5.53;;;28.60;30.30;;;32.82;21.35;100757.34;5031903;28;20214;-59
2023/04/22 09:07:27;;;;;;;6.23;5.63;;;28.60;30.50;;;32.20;21.87;100746.72;5033638;28;20190;-58
2023/04/22 09:09:55;;;;;;;5.87;5.37;;;28.40;31.00;;;31.95;21.96;100756.38;5033516;28;20191;-60
2023/04/22 09:12:24;;;;;;;6.97;5.37;;;28.10;31.20;;;31.90;22.66;100753.81;5033142;28;20659;-59
2023/04/22 09:14:51;;;;;;;5.53;5.03;;;27.90;31.90;;;32.52;21.62;100746.28;5034185;28;20214;-61
2023/04/22 09:17:31;;;;;;;5.23;4.77;;;28.00;32.20;;;33.69;21.67;100748.63;5033891;28;20199;-62
2023/04/22 09:20:01;;;;;;;5.93;5.43;;;28.40;32.50;;;34.59;20.06;100750.69;5033552;28;20194;-60
2023/04/22 09:22:38;;;;;;;9.03;6.13;;;28.70;31.10;;;35.08;19.55;100748.16;5032261;28;20191;-59
2023/04/22 09:25:14;;;;;;;7.63;5.15;;;29.10;30.30;;;35.37;19.00;100748.00;5031838;28;20226;-59
2023/04/22 09:27:47;;;;;;;7.82;6.07;;;29.50;30.00;;;35.60;18.86;100756.59;5031981;28;20223;-60
2023/04/22 09:30:18;;;;;;;6.80;5.88;;;29.80;29.50;;;36.14;19.05;100755.22;5033274;28;20195;-60
2023/04/22 09:32:53;;;;;;;6.13;5.53;;;30.20;29.20;;;36.31;18.82;100754.97;5033389;28;20192;-60
2023/04/22 09:35:30;;;;;;;8.45;5.65;;;30.50;28.70;;;36.36;18.02;100756.69;5030998;28;20221;-59
2023/04/22 09:38:01;;;;;;;5.88;5.38;;;30.60;28.30;;;36.15;18.61;100756.84;5033090;28;20190;-59
2023/04/22 09:40:30;;;;;;;6.63;5.93;;;30.70;28.20;;;36.09;19.07;100746.47;5032790;28;20198;-62
2023/04/22 09:43:02;;;;;;;9.43;5.78;;;30.80;28.30;;;35.93;18.66;100755.34;5032745;28;20202;-58
2023/04/22 09:45:31;;;;;;;5.97;5.47;;;30.70;28.20;;;36.14;17.97;100748.94;5032139;28;20214;-60
2023/04/22 09:48:05;;;;;;;6.22;5.72;;;30.90;28.30;;;36.22;18.08;100748.03;5032798;28;20226;-60
2023/04/22 09:50:32;;;;;;;6.90;6.18;;;31.00;28.00;;;35.92;18.47;100748.25;5032463;28;20194;-63
2023/04/22 09:53:04;;;;;;;7.13;5.70;;;30.80;27.80;;;35.40;18.75;100746.53;5033298;28;20198;-60
2023/04/22 09:55:36;;;;;;;6.32;4.95;;;30.60;28.20;;;35.77;19.16;100732.53;5031335;28;20218;-57
2023/04/22 09:58:07;;;;;;;5.68;5.18;;;30.70;28.40;;;36.13;17.79;100731.72;5031989;28;20535;-61
2023/04/22 10:00:39;;;;;;;6.40;5.72;;;30.70;28.00;;;36.11;18.55;100733.19;5033663;28;20199;-61
2023/04/22 10:03:06;;;;;;;6.65;6.03;;;30.70;27.70;;;36.19;18.43;100732.25;5031240;28;20201;-58
2023/04/22 10:05:37;;;;;;;6.38;5.22;;;30.90;28.00;;;36.32;17.87;100728.34;5032285;28;20209;-61
2023/04/22 10:08:10;;;;;;;5.63;5.03;;;31.00;27.80;;;36.53;17.94;100729.00;5032746;28;20252;-60
2023/04/22 10:10:38;;;;;;;5.50;4.95;;;31.20;27.80;;;36.42;17.67;100728.66;5047780;28;20260;-59
2023/04/22 10:13:06;;;;;;;5.40;4.90;;;31.10;27.30;;;36.05;18.53;100727.16;5032403;28;20206;-60
2023/04/22 10:15:38;;;;;;;5.07;4.68;;;31.00;27.60;;;36.41;17.92;100721.56;5032590;28;20310;-59
2023/04/22 10:18:11;;;;;;;4.72;4.13;;;31.30;27.40;;;36.59;18.29;100717.41;5032794;28;20190;-64